Time;durP1;ratioP1;P1;durP2;ratioP2;P2;SDS_P1;SDS_P2;PMS_P1;PMS_P2;Temp;Humidity;BMP_temperature;BMP_pressure;BME280_temperature;BME280_humidity;BME280_pressure;Samples;Min_cycle;Max_cycle;Signal;HPM_P1;HPM_P2
2022/04/26 03:37:23;;;;;;;11.60;5.97;;;;;;;13.02;nan;-24180.44;4999713;28;20742;-71
2022/04/26 03:39:49;;;;;;;11.82;5.40;;;;;;;13.18;nan;-24185.06;5003831;28;20283;-72
2022/04/26 03:42:15;;;;;;;14.85;5.47;;;;;;;12.93;nan;-24177.91;5001784;28;20202;-71
2022/04/26 03:44:40;;;;;;;14.15;5.70;;;;;;;13.31;nan;-24188.59;5003681;28;20216;-71
2022/04/26 03:47:06;;;;;;;14.70;5.57;;;;;;;13.37;nan;-24190.13;5002326;28;20184;-70
2022/04/26 03:49:32;;;;;;;13.90;5.45;;;;;;;13.34;nan;-24189.44;5000486;28;20322;-71
2022/04/26 03:51:58;;;;;;;13.88;5.57;;;;;;;13.20;nan;-24185.50;5004214;28;20297;-71
2022/04/26 03:54:24;;;;;;;10.38;5.90;;;;;;;13.64;nan;-24197.72;5000951;28;20231;-71
2022/04/26 03:56:50;;;;;;;11.43;5.50;;;;;;;13.40;nan;-24191.13;5003937;28;20184;-70
2022/04/26 03:59:17;;;;;;;8.70;5.30;;;;;;;13.57;nan;-24195.75;5004888;28;20610;-71
2022/04/26 04:01:42;;;;;;;15.93;5.70;;;;;;;13.85;nan;-24203.59;5003868;28;20621;-71
2022/04/26 04:04:08;;;;;;;17.75;5.30;;;;;;;14.16;nan;-24212.16;5005524;28;20243;-72
2022/04/26 04:06:33;;;;;;;12.48;5.63;;;;;;;14.47;nan;-24220.72;5004454;28;20651;-72
2022/04/26 04:08:58;;;;;;;12.10;5.35;;;;;;;14.31;nan;-24216.22;5011591;28;20199;-67
2022/04/26 04:11:24;;;;;;;12.73;5.43;;;;;;;14.06;nan;-24209.50;5012830;28;20175;-68
2022/04/26 04:13:49;;;;;;;12.50;5.43;;;;;;;14.13;nan;-24211.47;5011562;28;20572;-69
2022/04/26 04:16:15;;;;;;;13.90;5.68;;;;;;;14.36;nan;-24217.66;5012802;28;20257;-68
2022/04/26 04:21:24;;;;;;;11.15;4.80;;;;;;;16.56;nan;-24278.53;5014508;28;20226;-68
2022/04/26 04:23:50;;;;;;;10.45;5.28;;;;;;;17.78;nan;-24312.19;5017629;28;20668;-68
2022/04/26 04:26:15;;;;;;;11.90;5.03;;;;;;;18.48;nan;-24331.72;5016104;28;20655;-68
2022/04/26 04:28:41;;;;;;;17.95;5.53;;;;;;;18.95;nan;-24344.53;5017230;28;20627;-68
2022/04/26 04:31:08;;;;;;;10.90;5.20;;;;;;;19.67;nan;-24364.28;5015146;28;20212;-69
2022/04/26 04:33:33;;;;;;;12.52;4.95;;;;;;;19.80;nan;-24367.91;5014958;28;20266;-69
2022/04/26 04:35:58;;;;;;;12.68;4.60;;;;;;;19.35;nan;-24355.53;5014315;28;20263;-69
2022/04/26 04:38:26;;;;;;;13.50;4.88;;;;;;;19.72;nan;-24365.69;5016060;28;20175;-68
2022/04/26 04:40:53;;;;;;;13.45;5.13;;;;;;;19.50;nan;-24359.56;5015859;28;20190;-69
2022/04/26 04:43:18;;;;;;;15.82;5.30;;;;;;;19.83;nan;-24368.88;5018063;28;20179;-69
2022/04/26 04:45:43;;;;;;;10.13;4.95;;;;;;;19.81;nan;-24368.19;5016711;28;20188;-69
2022/04/26 04:48:09;;;;;;;14.43;4.68;;;;;;;19.27;nan;-24353.28;5017375;28;20198;-69
2022/04/26 04:50:35;;;;;;;12.18;4.90;;;;;;;19.50;nan;-24359.56;5018041;28;20235;-69
2022/04/26 04:53:01;;;;;;;10.20;4.97;;;;;;;19.25;nan;-24352.88;5014934;28;20567;-69
2022/04/26 04:55:26;;;;;;;11.55;4.60;;;;;;;19.42;nan;-24357.59;5017871;28;20215;-69
2022/04/26 04:57:52;;;;;;;6.45;4.20;;;;;;;19.35;nan;-24355.66;5017535;28;20647;-69
2022/04/26 05:00:17;;;;;;;8.98;4.10;;;;;;;19.36;nan;-24355.94;5016964;28;20180;-69
2022/04/26 05:02:43;;;;;;;9.40;4.13;;;;;;;19.00;nan;-24345.91;5017547;28;20259;-69
2022/04/26 05:05:08;;;;;;;7.80;3.65;;;;;;;18.61;nan;-24335.06;5017486;28;20294;-69
2022/04/26 05:07:35;;;;;;;13.18;3.90;;;;;;;18.70;nan;-24337.56;5017755;28;20550;-69
2022/04/26 05:10:00;;;;;;;6.90;3.70;;;;;;;18.93;nan;-24343.97;5017557;28;20184;-69
2022/04/26 05:12:26;;;;;;;10.15;3.47;;;;;;;18.77;nan;-24339.53;5017675;28;20186;-69
2022/04/26 05:14:51;;;;;;;15.23;5.68;;;;;;;18.31;nan;-24326.97;5017449;28;20540;-69
2022/04/26 05:17:16;;;;;;;10.48;5.20;;;;;;;18.28;nan;-24326.00;5017395;28;20176;-69
2022/04/26 05:19:42;;;;;;;9.82;3.85;;;;;;;18.25;nan;-24325.31;5014579;28;20174;-69
2022/04/26 05:22:10;;;;;;;10.30;4.20;;;;;;;18.40;nan;-24329.47;5014678;28;20164;-69
2022/04/26 05:24:58;;;;;;;8.65;3.60;;;;;;;18.35;nan;-24328.09;5014465;28;20192;-69
2022/04/26 05:27:34;;;;;;;9.35;3.50;;;;;;;18.64;nan;-24336.03;5014088;28;20172;-69
2022/04/26 05:29:59;;;;;;;7.38;3.65;;;;;;;19.02;nan;-24346.47;5013548;28;20262;-69
2022/04/26 05:32:30;;;;;;;10.05;3.40;;;;;;;19.09;nan;-24348.28;5014149;28;20279;-68
2022/04/26 05:34:58;;;;;;;7.70;3.25;;;;;;;19.50;nan;-24359.56;5014312;28;20180;-68
2022/04/26 05:37:23;;;;;;;10.98;3.17;;;;;;;19.54;nan;-24360.81;5014042;28;20176;-68
2022/04/26 05:39:48;;;;;;;10.43;3.47;;;;;;;19.77;nan;-24367.19;5014372;28;20616;-69
2022/04/26 05:42:14;;;;;;;9.65;3.28;;;;;;;20.39;nan;-24384.16;5013391;28;20290;-69
2022/04/26 05:44:39;;;;;;;9.13;3.10;;;;;;;20.44;nan;-24385.41;5014050;28;20195;-69
2022/04/26 05:47:07;;;;;;;9.63;3.13;;;;;;;20.41;nan;-24384.72;5014061;28;20606;-69
2022/04/26 05:49:34;;;;;;;7.35;3.30;;;;;;;20.37;nan;-24383.47;5014046;28;20234;-68
2022/04/26 05:52:00;;;;;;;6.03;3.42;;;;;;;20.53;nan;-24388.03;5014267;28;20662;-69
2022/04/26 05:54:25;;;;;;;8.15;3.20;;;;;;;20.45;nan;-24385.81;5013499;28;20676;-69
2022/04/26 05:56:53;;;;;;;6.05;3.20;;;;;;;20.55;nan;-24388.47;5013738;28;20777;-68
2022/04/26 05:59:20;;;;;;;9.68;3.35;;;;;;;20.53;nan;-24388.03;5013661;28;20652;-69
2022/04/26 06:01:45;;;;;;;7.53;3.58;;;;;;;20.42;nan;-24385.00;5013496;28;20564;-69
2022/04/26 06:04:11;;;;;;;9.25;3.15;;;;;;;20.36;nan;-24383.19;5013296;28;20313;-69
2022/04/26 06:06:37;;;;;;;6.70;3.10;;;;;;;20.42;nan;-24385.00;5013609;28;20172;-69
2022/04/26 06:09:03;;;;;;;9.77;3.67;;;;;;;20.47;nan;-24386.25;5013480;28;20180;-69
2022/04/26 06:11:28;;;;;;;9.45;3.42;;;;;;;20.31;nan;-24381.78;5013066;28;20239;-69
2022/04/26 06:13:54;;;;;;;6.85;3.40;;;;;;;20.60;nan;-24389.84;5013541;28;20678;-69
2022/04/26 06:16:19;;;;;;;9.02;3.33;;;;;;;20.32;nan;-24382.06;5013632;28;20539;-69
2022/04/26 06:18:45;;;;;;;7.75;3.17;;;;;;;19.65;nan;-24363.88;5013302;28;20167;-69
2022/04/26 06:21:10;;;;;;;7.20;3.42;;;;;;;19.91;nan;-24370.97;5013480;28;20756;-69
2022/04/26 06:23:36;;;;;;;10.30;3.30;;;;;;;20.14;nan;-24377.34;5013184;28;20269;-68
2022/04/26 06:26:02;;;;;;;7.80;2.97;;;;;;;20.40;nan;-24384.28;5011648;28;20267;-69
2022/04/26 06:28:27;;;;;;;8.65;2.90;;;;;;;20.48;nan;-24386.53;5011898;28;20188;-69
2022/04/26 06:30:55;;;;;;;9.45;2.80;;;;;;;20.57;nan;-24389.16;5012913;28;20583;-68
2022/04/26 06:33:20;;;;;;;5.55;2.70;;;;;;;20.75;nan;-24394.00;5013229;28;20707;-68
2022/04/26 06:35:46;;;;;;;7.60;3.03;;;;;;;20.53;nan;-24388.03;5013034;28;20267;-68
2022/04/26 06:38:11;;;;;;;7.82;3.00;;;;;;;21.01;nan;-24401.09;5012644;28;20635;-68
2022/04/26 06:40:36;;;;;;;6.55;2.63;;;;;;;20.64;nan;-24390.97;5012724;28;20643;-68
2022/04/26 06:43:02;;;;;;;5.45;2.42;;;;;;;20.77;nan;-24394.41;5012263;28;20210;-68
2022/04/26 06:45:27;;;;;;;5.80;2.47;;;;;;;21.24;nan;-24407.47;5012465;28;20265;-68
2022/04/26 06:47:54;;;;;;;13.35;3.38;;;;;;;21.31;nan;-24409.41;5011552;28;20270;-68
2022/04/26 06:50:21;;;;;;;7.68;2.80;;;;;;;21.51;nan;-24414.94;5012906;28;20242;-68
2022/04/26 06:52:46;;;;;;;5.05;2.67;;;;;;;21.81;nan;-24423.13;5012238;28;20169;-68
2022/04/26 06:55:11;;;;;;;9.75;3.30;;;;;;;21.94;nan;-24426.72;5011604;28;20178;-69
2022/04/26 06:57:38;;;;;;;5.97;2.83;;;;;;;22.15;nan;-24432.25;5011439;28;20164;-69
2022/04/26 07:00:05;;;;;;;7.00;2.50;;;;;;;22.11;nan;-24431.16;5012884;28;20259;-69
2022/04/26 07:02:31;;;;;;;8.48;2.80;;;;;;;22.41;nan;-24439.47;5012316;28;20176;-68
2022/04/26 07:04:56;;;;;;;7.55;2.42;;;;;;;21.99;nan;-24428.13;5011739;28;20291;-69
2022/04/26 07:07:22;;;;;;;11.07;2.80;;;;;;;22.22;nan;-24434.34;5012103;28;20207;-68
2022/04/26 07:09:47;;;;;;;6.80;2.60;;;;;;;22.58;nan;-24444.03;5012011;28;20226;-70
2022/04/26 07:12:13;;;;;;;4.50;2.35;;;;;;;22.05;nan;-24429.50;5012201;28;20172;-70
2022/04/26 07:14:38;;;;;;;5.47;2.38;;;;;;;22.40;nan;-24439.19;5012416;28;20172;-70
2022/04/26 07:17:04;;;;;;;5.15;2.22;;;;;;;22.50;nan;-24441.81;5012243;28;20562;-70
2022/04/26 07:19:30;;;;;;;5.47;2.30;;;;;;;22.70;nan;-24447.34;5012598;28;20188;-70
2022/04/26 07:21:55;;;;;;;8.88;2.30;;;;;;;22.82;nan;-24450.81;5012783;28;20182;-70
2022/04/26 07:24:21;;;;;;;5.93;2.40;;;;;;;22.69;nan;-24447.06;5012623;28;20195;-70
2022/04/26 07:26:46;;;;;;;4.05;2.17;;;;;;;22.96;nan;-24454.53;5012861;28;20227;-70
2022/04/26 07:29:14;;;;;;;6.03;2.38;;;;;;;22.80;nan;-24450.25;5012587;28;20269;-70
2022/04/26 07:31:39;;;;;;;8.85;2.47;;;;;;;22.93;nan;-24453.56;5012464;28;20176;-70
2022/04/26 07:34:20;;;;;;;8.70;2.40;;;;;;;23.02;nan;-24456.19;5012557;28;20600;-70
2022/04/26 07:36:46;;;;;;;5.38;2.20;;;;;;;23.07;nan;-24457.44;5012533;28;20176;-70
2022/04/26 07:39:11;;;;;;;8.52;2.40;;;;;;;23.46;nan;-24468.22;5011813;28;20290;-70
2022/04/26 07:41:37;;;;;;;5.15;2.75;;;;;;;23.28;nan;-24463.25;5012027;28;20259;-70
2022/04/26 07:44:02;;;;;;;7.78;2.63;;;;;;;23.31;nan;-24464.19;5011723;28;20196;-70
2022/04/26 07:46:28;;;;;;;8.18;2.55;;;;;;;23.13;nan;-24459.09;5012155;28;20317;-70
2022/04/26 07:48:55;;;;;;;5.13;2.20;;;;;;;22.89;nan;-24452.72;5012174;28;20206;-70
2022/04/26 07:51:21;;;;;;;6.15;2.45;;;;;;;22.96;nan;-24454.53;5012002;28;20299;-70
2022/04/26 07:53:46;;;;;;;8.57;2.80;;;;;;;23.28;nan;-24463.38;5011840;28;20298;-70
2022/04/26 07:56:12;;;;;;;3.58;2.20;;;;;;;22.55;nan;-24443.19;5011999;28;20188;-70
2022/04/26 07:58:37;;;;;;;7.07;3.25;;;;;;;22.20;nan;-24433.66;5011997;28;20265;-70
2022/04/26 08:01:04;;;;;;;11.57;2.53;;;;;;;22.25;nan;-24435.03;5011755;28;20176;-70
2022/04/26 08:03:32;;;;;;;6.80;2.60;;;;;;;22.38;nan;-24438.63;5012035;28;20176;-70
2022/04/26 08:05:57;;;;;;;5.18;2.60;;;;;;;21.68;nan;-24419.38;5011851;28;20234;-69
2022/04/26 08:08:23;;;;;;;5.00;2.70;;;;;;;21.79;nan;-24422.56;5011807;28;20183;-70
2022/04/26 08:10:49;;;;;;;6.80;2.80;;;;;;;21.70;nan;-24420.06;5012292;28;20167;-70
2022/04/26 08:13:14;;;;;;;6.35;2.70;;;;;;;21.83;nan;-24423.53;5012065;28;20234;-70
2022/04/26 08:15:39;;;;;;;8.05;2.88;;;;;;;22.41;nan;-24439.59;5011915;28;20172;-70
2022/04/26 08:18:05;;;;;;;6.55;2.80;;;;;;;22.45;nan;-24440.69;5012015;28;20226;-70
2022/04/26 08:20:31;;;;;;;6.28;2.95;;;;;;;22.08;nan;-24430.31;5012186;28;20180;-70
2022/04/26 08:22:56;;;;;;;7.60;3.20;;;;;;;22.47;nan;-24441.13;5011928;28;20610;-69
2022/04/26 08:28:05;;;;;;;11.38;2.95;;;;;;;22.53;nan;-24442.63;5011667;28;20203;-70
2022/04/26 08:30:31;;;;;;;9.02;3.30;;;;;;;22.56;nan;-24443.59;5011944;28;20200;-70
2022/04/26 08:32:56;;;;;;;7.78;3.35;;;;;;;22.53;nan;-24442.63;5011875;28;20172;-70
2022/04/26 08:35:25;;;;;;;12.13;3.05;;;;;;;22.53;nan;-24442.78;5010102;28;20188;-69
2022/04/26 08:37:50;;;;;;;9.07;3.40;;;;;;;22.42;nan;-24439.75;5012351;28;20204;-70
2022/04/26 08:40:16;;;;;;;5.07;3.38;;;;;;;22.78;nan;-24449.69;5011161;28;20208;-70
2022/04/26 08:42:46;;;;;;;7.57;3.60;;;;;;;22.82;nan;-24450.81;5011952;28;20180;-70
2022/04/26 08:45:17;;;;;;;6.03;3.47;;;;;;;22.63;nan;-24445.41;5011699;28;20204;-70
2022/04/26 08:53:18;;;;;;;5.63;3.33;;;;;;;22.30;nan;-24436.41;5011674;28;20281;-70
2022/04/26 08:55:45;;;;;;;7.03;3.17;;;;;;;22.62;nan;-24445.25;5014194;28;20263;-69
2022/04/26 08:58:13;;;;;;;5.85;3.15;;;;;;;22.81;nan;-24450.38;5015012;28;20215;-70
2022/04/26 09:01:08;;;;;;;9.80;3.35;;;;;;;22.92;nan;-24453.28;5015317;28;20180;-70
2022/04/26 09:03:39;;;;;;;11.32;3.05;;;;;;;22.95;nan;-24454.13;5016316;28;20188;-70
2022/04/26 09:06:07;;;;;;;7.88;2.40;;;;;;;22.92;nan;-24453.28;5015488;28;20164;-70
2022/04/26 09:08:32;;;;;;;6.55;2.67;;;;;;;22.81;nan;-24450.38;5015035;28;20172;-69
2022/04/26 09:10:58;;;;;;;4.53;2.40;;;;;;;22.80;nan;-24450.25;5014843;28;20662;-69
2022/04/26 09:13:24;;;;;;;5.45;2.25;;;;;;;23.30;nan;-24463.94;5015287;28;20184;-70
2022/04/26 09:15:55;;;;;;;5.47;2.20;;;;;;;23.15;nan;-24459.78;5015028;28;20498;-70
2022/04/26 09:18:27;;;;;;;7.13;2.28;;;;;;;23.46;nan;-24468.22;5015193;28;20283;-70
2022/04/26 09:21:12;;;;;;;8.48;2.47;;;;;;;23.74;nan;-24475.81;5014934;28;20227;-70
2022/04/26 09:23:39;;;;;;;4.32;2.10;;;;;;;23.66;nan;-24473.59;5015085;28;20730;-70
2022/04/26 09:26:07;;;;;;;3.55;1.80;;;;;;;23.12;nan;-24458.81;5014867;28;20259;-70
2022/04/26 09:28:33;;;;;;;5.03;2.00;;;;;;;23.59;nan;-24471.81;5014649;28;20601;-69
2022/04/26 09:30:59;;;;;;;4.97;1.90;;;;;;;23.47;nan;-24468.50;5014616;28;20171;-69
2022/04/26 09:33:43;;;;;;;4.75;2.40;;;;;;;23.45;nan;-24467.78;5013018;28;20184;-70
2022/04/26 09:36:10;;;;;;;6.22;2.17;;;;;;;23.79;nan;-24477.19;5014899;28;20160;-70
2022/04/26 09:38:37;;;;;;;3.97;1.83;;;;;;;23.68;nan;-24474.28;5014439;28;20226;-70
2022/04/26 09:41:09;;;;;;;1.90;1.70;;;;;;;23.92;nan;-24480.63;5015073;28;20168;-70
2022/04/26 09:43:35;;;;;;;4.05;1.83;;;;;;;23.83;nan;-24478.16;5014573;28;20246;-70
2022/04/26 09:46:01;;;;;;;7.43;1.77;;;;;;;23.88;nan;-24479.53;5014192;28;20261;-69
2022/04/26 09:48:40;;;;;;;3.80;1.80;;;;;;;23.79;nan;-24477.19;5014064;28;20725;-70
2022/04/26 09:51:08;;;;;;;4.45;1.95;;;;;;;24.06;nan;-24484.50;5014440;28;20325;-70
2022/04/26 09:53:34;;;;;;;4.05;1.90;;;;;;;23.98;nan;-24482.44;5014497;28;20218;-70
2022/04/26 09:56:01;;;;;;;4.50;1.80;;;;;;;23.60;nan;-24472.06;5012081;28;20207;-70
2022/04/26 09:58:28;;;;;;;3.67;1.80;;;;;;;24.01;nan;-24483.13;5013924;28;20592;-70
2022/04/26 10:00:56;;;;;;;3.97;1.83;;;;;;;23.95;nan;-24481.47;5013199;28;20176;-70
2022/04/26 10:03:35;;;;;;;3.75;1.90;;;;;;;24.47;nan;-24495.66;5013594;28;20259;-70
2022/04/26 10:06:02;;;;;;;6.57;2.00;;;;;;;24.27;nan;-24490.16;5013137;28;20183;-70
2022/04/26 10:08:30;;;;;;;5.63;2.08;;;;;;;24.19;nan;-24488.09;5013750;28;20187;-69
2022/04/26 10:11:00;;;;;;;3.72;2.00;;;;;;;24.19;nan;-24488.09;5013518;28;20187;-69
2022/04/26 10:13:31;;;;;;;3.15;1.88;;;;;;;24.53;nan;-24497.31;5013260;28;20824;-70
2022/04/26 10:16:05;;;;;;;5.32;2.08;;;;;;;24.52;nan;-24497.03;5012458;28;20259;-70
2022/04/26 10:18:38;;;;;;;6.38;2.10;;;;;;;25.19;nan;-24515.22;5011656;28;20562;-69
2022/04/26 10:21:06;;;;;;;6.70;2.38;;;;;;;24.96;nan;-24509.19;5011162;28;20557;-68
2022/04/26 10:23:50;;;;;;;3.75;1.92;;;;;;;24.93;nan;-24508.34;5012557;28;20236;-70
2022/04/26 10:28:59;;;;;;;2.67;1.73;;;;;;;24.40;nan;-24493.75;5012583;28;20567;-68
2022/04/26 10:31:46;;;;;;;4.20;2.00;;;;;;;24.85;nan;-24506.00;5011507;28;20183;-69
2022/04/26 10:34:17;;;;;;;5.22;1.90;;;;;;;24.92;nan;-24507.94;4996201;28;20176;-69
2022/04/26 10:37:16;;;;;;;6.22;1.70;;;;;;;25.13;nan;-24513.72;5008654;28;20552;-69
2022/04/26 10:39:50;;;;;;;3.78;1.83;;;;;;;24.78;nan;-24504.06;5016889;28;20291;-69
2022/04/26 10:42:16;;;;;;;3.70;1.95;;;;;;;25.00;nan;-24510.13;5011285;28;20180;-69
2022/04/26 10:44:46;;;;;;;5.93;2.00;;;;;;;25.00;nan;-24510.28;5012410;28;20214;-69
2022/04/26 10:47:18;;;;;;;5.05;2.03;;;;;;;25.26;nan;-24517.28;5012404;28;20172;-69
2022/04/26 10:49:45;;;;;;;5.10;1.80;;;;;;;25.06;nan;-24511.78;5012471;28;20187;-69
2022/04/26 10:52:22;;;;;;;2.13;1.52;;;;;;;25.30;nan;-24518.41;5012767;28;20545;-70
2022/04/26 10:55:02;;;;;;;6.88;2.15;;;;;;;25.90;nan;-24534.63;5011800;28;20333;-70
2022/04/26 10:57:31;;;;;;;5.70;1.85;;;;;;;26.24;nan;-24543.97;5011909;28;20196;-70
2022/04/26 11:00:00;;;;;;;3.67;1.70;;;;;;;26.55;nan;-24552.34;5011606;28;20195;-69
2022/04/26 11:02:28;;;;;;;6.60;1.90;;;;;;;26.40;nan;-24548.09;5012173;28;20203;-69
2022/04/26 11:05:21;;;;;;;6.78;1.80;;;;;;;25.75;nan;-24530.50;5010907;28;20185;-69
2022/04/26 11:07:48;;;;;;;5.15;1.92;;;;;;;25.44;nan;-24522.25;5012706;28;20676;-68
2022/04/26 11:10:16;;;;;;;7.65;2.28;;;;;;;25.29;nan;-24517.97;5011528;28;20172;-69
2022/04/26 11:12:42;;;;;;;6.18;2.40;;;;;;;25.66;nan;-24528.16;5010871;28;20665;-69
2022/04/26 11:15:19;;;;;;;4.53;2.20;;;;;;;25.60;nan;-24526.38;5012031;28;20168;-68
2022/04/26 11:17:45;;;;;;;3.85;1.95;;;;;;;25.06;nan;-24511.91;5011185;28;20170;-68
2022/04/26 11:20:14;;;;;;;5.22;2.10;;;;;;;24.97;nan;-24509.44;5011985;28;20259;-68
2022/04/26 11:22:51;;;;;;;5.32;1.85;;;;;;;25.30;nan;-24518.25;5010848;28;20207;-69
2022/04/26 11:28:17;;;;;;;7.57;2.20;;;;;;;25.04;nan;-24511.38;4990799;28;20180;-68
2022/04/26 11:30:46;;;;;;;6.38;2.10;;;;;;;25.29;nan;-24517.97;4990694;28;20188;-69
2022/04/26 11:33:19;;;;;;;4.30;1.90;;;;;;;24.98;nan;-24509.72;5000300;28;20274;-71
2022/04/26 11:35:45;;;;;;;5.90;2.17;;;;;;;24.75;nan;-24503.38;5009857;28;20235;-69
2022/04/26 11:38:13;;;;;;;5.20;2.10;;;;;;;24.74;nan;-24503.09;5009654;28;20314;-69
2022/04/26 11:40:46;;;;;;;3.22;2.00;;;;;;;24.34;nan;-24492.22;5011360;28;20616;-69
2022/04/26 11:43:19;;;;;;;5.20;2.30;;;;;;;24.50;nan;-24496.50;5011821;28;20160;-69
2022/04/26 11:45:50;;;;;;;3.35;1.77;;;;;;;25.16;nan;-24514.53;5011668;28;20259;-69
2022/04/26 11:48:17;;;;;;;6.65;1.90;;;;;;;25.14;nan;-24514.00;5012076;28;20186;-68
2022/04/26 11:50:44;;;;;;;4.13;2.00;;;;;;;25.42;nan;-24521.69;5011918;28;20176;-69
2022/04/26 11:53:32;;;;;;;5.07;2.05;;;;;;;25.03;nan;-24511.09;5011452;28;20247;-69
2022/04/26 11:56:00;;;;;;;5.03;2.03;;;;;;;24.98;nan;-24509.72;5011712;28;20265;-69
2022/04/26 11:58:37;;;;;;;4.15;2.30;;;;;;;25.18;nan;-24515.09;5011700;28;20183;-69
2022/04/26 12:01:11;;;;;;;6.80;2.28;;;;;;;25.38;nan;-24520.59;5011595;28;20647;-69
2022/04/26 12:03:48;;;;;;;3.50;2.05;;;;;;;25.53;nan;-24524.59;5010688;28;20184;-70
2022/04/26 12:06:25;;;;;;;7.18;2.28;;;;;;;25.56;nan;-24525.28;5011741;28;20543;-69
2022/04/26 12:08:58;;;;;;;3.78;2.20;;;;;;;25.61;nan;-24526.66;4992113;28;20199;-70
2022/04/26 12:11:35;;;;;;;7.43;2.20;;;;;;;25.81;nan;-24532.16;4997846;28;20650;-69
2022/04/26 12:14:17;;;;;;;4.07;2.20;;;;;;;25.93;nan;-24535.59;5011110;28;20617;-69
2022/04/26 12:16:48;;;;;;;4.05;2.22;;;;;;;25.56;nan;-24525.41;5010768;28;20186;-68
2022/04/26 12:19:14;;;;;;;6.40;2.53;;;;;;;25.97;nan;-24536.41;5011202;28;20172;-69
2022/04/26 12:21:56;;;;;;;5.10;2.30;;;;;;;25.93;nan;-24535.44;5011636;28;20665;-69
2022/04/26 12:24:27;;;;;;;5.45;1.90;;;;;;;25.95;nan;-24536.00;5010656;28;20215;-69
2022/04/26 12:27:00;;;;;;;5.78;2.50;;;;;;;25.89;nan;-24534.34;5011644;28;20614;-69
2022/04/26 12:29:31;;;;;;;7.07;2.45;;;;;;;25.96;nan;-24536.28;4994388;28;20335;-68
2022/04/26 12:31:58;;;;;;;3.65;1.90;;;;;;;25.57;nan;-24525.56;5001549;28;20176;-69
2022/04/26 12:34:31;;;;;;;4.35;2.05;;;;;;;25.88;nan;-24534.06;5015233;28;20190;-68
2022/04/26 12:36:59;;;;;;;8.55;2.30;;;;;;;26.18;nan;-24542.19;5015122;28;20160;-69
2022/04/26 12:39:48;;;;;;;12.88;2.30;;;;;;;26.14;nan;-24541.09;5015371;28;20168;-68
2022/04/26 12:42:42;;;;;;;4.18;2.13;;;;;;;25.71;nan;-24529.41;5015185;28;20183;-68
2022/04/26 12:45:11;;;;;;;7.25;2.20;;;;;;;25.51;nan;-24524.03;5015027;28;20295;-69
2022/04/26 12:50:33;;;;;;;7.63;2.65;;;;;;;25.35;nan;-24519.78;5014561;28;20238;-68
2022/04/26 12:53:06;;;;;;;8.75;2.72;;;;;;;25.22;nan;-24516.19;5015033;28;20160;-68
2022/04/26 12:55:42;;;;;;;3.95;2.38;;;;;;;25.32;nan;-24518.94;5015111;28;20195;-68
2022/04/26 12:58:08;;;;;;;5.28;2.40;;;;;;;25.06;nan;-24511.78;5014599;28;20183;-68
2022/04/26 13:00:39;;;;;;;6.03;2.40;;;;;;;24.88;nan;-24506.97;5014054;28;20281;-69
2022/04/26 13:03:06;;;;;;;6.93;2.53;;;;;;;25.20;nan;-24515.63;5014685;28;20176;-69
2022/04/26 13:05:41;;;;;;;9.35;2.58;;;;;;;25.20;nan;-24515.63;5014633;28;20203;-69
2022/04/26 13:08:08;;;;;;;5.85;2.80;;;;;;;25.15;nan;-24514.28;5014435;28;20175;-69
2022/04/26 13:10:34;;;;;;;8.30;3.10;;;;;;;25.06;nan;-24511.78;5014494;28;20600;-69
2022/04/26 13:12:59;;;;;;;6.65;2.42;;;;;;;24.91;nan;-24507.66;5014399;28;20275;-69
2022/04/26 13:15:27;;;;;;;8.27;2.50;;;;;;;24.89;nan;-24507.25;5014319;28;20655;-69
2022/04/26 13:17:53;;;;;;;10.98;2.65;;;;;;;24.68;nan;-24501.31;5013865;28;20640;-68
2022/04/26 13:20:19;;;;;;;6.65;2.70;;;;;;;24.84;nan;-24505.72;5014058;28;20175;-70
2022/04/26 13:22:44;;;;;;;10.23;2.70;;;;;;;25.01;nan;-24510.56;5014018;28;20175;-70
2022/04/26 13:25:10;;;;;;;8.05;2.55;;;;;;;24.66;nan;-24500.91;5013982;28;20294;-69
2022/04/26 13:27:37;;;;;;;3.58;2.47;;;;;;;24.96;nan;-24509.03;5014194;28;20643;-69
2022/04/26 13:30:04;;;;;;;5.00;2.78;;;;;;;24.87;nan;-24506.69;5014150;28;20160;-69
2022/04/26 13:32:30;;;;;;;6.93;2.70;;;;;;;24.60;nan;-24499.25;5014404;28;20247;-69
2022/04/26 13:34:57;;;;;;;6.45;2.90;;;;;;;24.46;nan;-24495.41;5012299;28;20205;-69
2022/04/26 13:37:24;;;;;;;5.18;2.45;;;;;;;24.40;nan;-24493.88;5013899;28;20256;-69
2022/04/26 13:39:50;;;;;;;5.63;2.53;;;;;;;24.72;nan;-24502.56;5013780;28;20200;-68
2022/04/26 13:42:17;;;;;;;5.53;3.10;;;;;;;24.06;nan;-24484.50;5014033;28;20160;-68
2022/04/26 13:44:42;;;;;;;10.65;2.80;;;;;;;24.31;nan;-24491.41;5013192;28;20298;-68
2022/04/26 13:47:08;;;;;;;6.63;2.67;;;;;;;24.27;nan;-24490.16;5013403;28;20180;-69
2022/04/26 13:49:35;;;;;;;6.28;2.92;;;;;;;24.27;nan;-24490.28;5012184;28;20254;-68
2022/04/26 13:52:02;;;;;;;4.45;2.65;;;;;;;24.52;nan;-24497.19;5013458;28;20219;-68
2022/04/26 13:54:28;;;;;;;4.15;2.42;;;;;;;25.13;nan;-24513.56;5013646;28;20246;-69
2022/04/26 13:56:54;;;;;;;5.43;2.60;;;;;;;25.34;nan;-24519.50;5014067;28;20582;-68
2022/04/26 13:59:20;;;;;;;5.53;2.50;;;;;;;24.56;nan;-24498.28;5012810;28;20180;-69
2022/04/26 14:01:46;;;;;;;10.23;2.95;;;;;;;24.45;nan;-24495.13;5013332;28;20184;-69
2022/04/26 14:04:11;;;;;;;5.10;2.72;;;;;;;24.63;nan;-24500.06;5013792;28;20697;-69
2022/04/26 14:06:37;;;;;;;6.32;2.80;;;;;;;24.96;nan;-24509.03;5013385;28;20188;-69
2022/04/26 14:09:02;;;;;;;7.43;3.05;;;;;;;25.12;nan;-24513.31;5013548;28;20183;-69
2022/04/26 14:11:28;;;;;;;9.65;2.80;;;;;;;24.74;nan;-24502.97;5013414;28;20157;-69
2022/04/26 14:22:05;;;;;;;6.07;2.70;;;;;;;24.94;nan;-24508.63;5013149;28;20226;-69
2022/04/26 14:24:30;;;;;;;4.47;2.40;;;;;;;24.91;nan;-24507.66;5013538;28;20192;-69
2022/04/26 14:26:57;;;;;;;5.97;2.90;;;;;;;24.62;nan;-24499.94;5013365;28;20614;-69
2022/04/26 14:29:23;;;;;;;6.53;2.67;;;;;;;24.73;nan;-24502.69;5013093;28;20628;-69
2022/04/26 14:31:49;;;;;;;5.20;2.83;;;;;;;24.45;nan;-24495.13;5013140;28;20167;-69
2022/04/26 14:34:14;;;;;;;7.05;3.05;;;;;;;24.76;nan;-24503.53;5013261;28;20172;-69
2022/04/26 14:36:40;;;;;;;7.15;3.05;;;;;;;24.43;nan;-24494.56;5013020;28;20199;-69
2022/04/26 14:39:06;;;;;;;8.65;2.90;;;;;;;24.48;nan;-24496.09;5013210;28;20217;-69
2022/04/26 14:41:32;;;;;;;5.00;2.83;;;;;;;24.07;nan;-24484.78;5012875;28;20172;-69
2022/04/26 14:43:57;;;;;;;5.45;2.70;;;;;;;24.13;nan;-24486.44;5012925;28;20273;-69
2022/04/26 14:46:22;;;;;;;4.72;3.10;;;;;;;24.31;nan;-24491.25;5012528;28;20186;-69
2022/04/26 14:48:48;;;;;;;5.30;3.20;;;;;;;24.16;nan;-24487.41;5012982;28;20168;-68
2022/04/26 14:51:13;;;;;;;4.80;2.90;;;;;;;23.81;nan;-24477.75;5012195;28;20179;-69
2022/04/26 14:53:39;;;;;;;7.60;3.10;;;;;;;24.00;nan;-24482.97;5011616;28;20667;-68
2022/04/26 14:56:06;;;;;;;5.68;3.08;;;;;;;23.74;nan;-24475.94;5013001;28;20172;-69
2022/04/26 14:58:34;;;;;;;5.13;3.15;;;;;;;23.37;nan;-24465.72;5012508;28;20176;-69
2022/04/26 15:00:59;;;;;;;7.75;3.20;;;;;;;23.45;nan;-24467.94;5012715;28;20234;-69
2022/04/26 15:03:25;;;;;;;5.72;2.75;;;;;;;23.33;nan;-24464.75;5012296;28;20168;-69
2022/04/26 15:05:51;;;;;;;7.95;3.05;;;;;;;23.19;nan;-24460.75;5012350;28;20663;-69
2022/04/26 15:11:00;;;;;;;8.80;3.30;;;;;;;23.03;nan;-24456.47;5012473;28;20659;-69
2022/04/26 15:18:53;;;;;;;7.25;3.20;;;;;;;22.33;nan;-24437.25;5011424;28;20278;-69
2022/04/26 15:21:19;;;;;;;6.18;3.10;;;;;;;22.15;nan;-24432.25;5012254;28;20265;-69
2022/04/26 15:23:44;;;;;;;6.05;3.42;;;;;;;21.99;nan;-24427.97;5012145;28;20728;-69
2022/04/26 15:26:11;;;;;;;7.75;3.90;;;;;;;21.90;nan;-24425.47;5012398;28;20178;-69
2022/04/26 15:28:38;;;;;;;8.93;3.75;;;;;;;21.45;nan;-24413.16;5012271;28;20194;-68
2022/04/26 15:31:04;;;;;;;5.22;3.45;;;;;;;21.37;nan;-24410.94;5012018;28;20242;-68
2022/04/26 15:33:30;;;;;;;7.40;4.40;;;;;;;21.27;nan;-24408.28;5012371;28;20267;-68
2022/04/26 15:35:57;;;;;;;4.53;3.90;;;;;;;21.02;nan;-24401.50;5011609;28;20203;-69
2022/04/26 15:38:22;;;;;;;5.47;3.60;;;;;;;20.80;nan;-24395.25;5010952;28;20665;-67
2022/04/26 15:40:50;;;;;;;6.93;3.90;;;;;;;20.83;nan;-24396.22;5010857;28;20263;-65
2022/04/26 15:43:15;;;;;;;6.15;4.18;;;;;;;20.47;nan;-24386.25;5011859;28;20274;-65
2022/04/26 15:45:42;;;;;;;5.93;4.70;;;;;;;20.25;nan;-24380.25;5011448;28;20639;-66
2022/04/26 15:48:08;;;;;;;6.85;4.70;;;;;;;20.40;nan;-24384.28;5011849;28;20172;-66
2022/04/26 15:50:34;;;;;;;4.68;3.95;;;;;;;20.82;nan;-24395.81;5011261;28;20246;-70
2022/04/26 15:53:00;;;;;;;7.45;4.43;;;;;;;20.36;nan;-24383.31;5009904;28;20645;-69
2022/04/26 15:55:25;;;;;;;7.45;4.60;;;;;;;19.84;nan;-24369.00;5011407;28;20168;-69
2022/04/26 15:57:51;;;;;;;7.70;5.22;;;;;;;19.71;nan;-24365.41;5011042;28;20234;-67